Details From NZAA - Auckland International
To YBRM - Broome Intl
Flight Number -
Tags Generated
Created
Modified
Stats Distance 2,983 nm / 5,524 km
Max Altitude 0 ft / 0 m
Waypoints 6
Social Downloads 1
Likes 0
Share VATSIM

Download

Looking for another format? Having issues loading an existing format? Contact us
Advertisement - Login to hide

Notes

Generated

Route

NZAA YOGGI DOXIE OOMWH BRMEC YBRM

ID Type Via Altitude Latitude Longitude Leg Dist Tot Dist Heading (true) Name
O NZAA APT - 0 ft / 0 m -37.01438˚ 174.77090˚ - 0 nm - -
YOGGI FIX - 0 ft / 0 m -32.55250˚ 151.89733˚ 1156 nm 1156 nm 277° / 290° -
DOXIE FIX - 0 ft / 0 m -31.13833˚ 148.10167˚ 211 nm 1368 nm 293° / 295° -
OOMWH FIX - 0 ft / 0 m -27.98995˚ 140.24639˚ 451 nm 1819 nm 293° / 297° -
BRMEC FIX - 0 ft / 0 m -18.07826˚ 122.41803˚ 1149 nm 2968 nm 297° / 304° -
O YBRM APT - 0 ft / 0 m -17.94581˚ 122.21626˚ 14 nm 2982 nm 305° / 305° -

Altitude Profile

Advertisement - Login to hide

Weather


0- 5 10 15 20 25 30 35+ Temperature / ° C

Clouds and Precipitation
Forecast for 2017-12-18 18:00 UTC. Updated an hour ago

Ground ~20,000 ft ~40,000 ft Winds

NZAA

Details ICAO NZAA (AKL)
Name Auckland International
Region New Zealand and Antarctica
Timezone Pacific/Auckland (UTC+13.0)
Stats Elevation 23 ft / 7 m (AMSL)
Location -37.010794° 174.787331°
Runways 2
Magnetic Variation 19.834° E

METAR

NZAA 181630Z AUTO 22009KT 9999 SCT020/// BKN028/// BKN037/// 19/16 Q1009 NOSIG

Decode

TAF

TAF AMD NZAA 181544Z 1815/1912 24005KT 9999 SCT018 BKN030 FM182300 26015KT 9999 FEW030 BECMG 1908/1910 27005KT

Decode

Departure Runways

ID Width Length Bearing (true) Bearing (mag) Surface Threshold Offset Overrun Length
05L 157 ft / 48 m 10,844 ft / 3,305 m 70.91° 51.08° Concrete 1,240 ft / 378 m 460 ft / 140 m
05R 152 ft / 46 m 12,085 ft / 3,684 m 70.96° 51.13° Concrete 1,270 ft / 387 m 0 ft / 0 m
23L 152 ft / 46 m 12,085 ft / 3,684 m 250.94° 231.11° Concrete 0 ft / 0 m 0 ft / 0 m
23R 157 ft / 48 m 10,844 ft / 3,305 m 250.89° 231.06° Concrete 1,060 ft / 323 m 0 ft / 0 m

YBRM

Details ICAO YBRM
Name Broome Intl
Region Australia
Timezone Australia/Perth (UTC+8.0)
Stats Elevation 56 ft / 17 m (AMSL)
Location -17.948745° 122.227225°
Runways 1
Magnetic Variation 1.800° E

METAR

YBRM 181630Z AUTO 31010KT 9999 // NCD 29/24 Q1006 RF00.0////./

Decode

TAF

TAF YBRM 181113Z 1812/1912 26008KT 9999 SCT018 FM190000 28012KT CAVOK

Decode

Destination Runways

ID Width Length Bearing (true) Bearing (mag) Surface Threshold Offset Overrun Length
10 148 ft / 45 m 8,325 ft / 2,537 m 105.60° 103.80° Asphalt 292 ft / 89 m 52 ft / 16 m
28 148 ft / 45 m 8,325 ft / 2,537 m 285.60° 283.80° Asphalt 666 ft / 203 m 0 ft / 0 m